sensor_id;sensor_type;location;lat;lon;timestamp;P1;durP1;ratioP1;P2;durP2;ratioP2
74528;SDS011;63009;52.584;5.932;2024-03-02T00:02:42;6.70;;;2.20;;
74528;SDS011;63009;52.584;5.932;2024-03-02T00:05:19;5.93;;;2.10;;
74528;SDS011;63009;52.584;5.932;2024-03-02T00:07:52;6.22;;;1.90;;
74528;SDS011;63009;52.584;5.932;2024-03-02T00:10:25;6.80;;;2.15;;
74528;SDS011;63009;52.584;5.932;2024-03-02T00:12:56;6.88;;;2.47;;
74528;SDS011;63009;52.584;5.932;2024-03-02T00:15:39;6.45;;;2.10;;
74528;SDS011;63009;52.584;5.932;2024-03-02T00:18:40;8.05;;;2.60;;
74528;SDS011;63009;52.584;5.932;2024-03-02T00:21:05;7.40;;;2.75;;
74528;SDS011;63009;52.584;5.932;2024-03-02T00:23:34;10.05;;;2.65;;
74528;SDS011;63009;52.584;5.932;2024-03-02T00:26:00;7.47;;;1.98;;
74528;SDS011;63009;52.584;5.932;2024-03-02T00:31:08;7.90;;;2.00;;
74528;SDS011;63009;52.584;5.932;2024-03-02T00:36:05;8.20;;;1.95;;
74528;SDS011;63009;52.584;5.932;2024-03-02T00:38:32;6.82;;;2.10;;
74528;SDS011;63009;52.584;5.932;2024-03-02T00:40:59;5.80;;;2.05;;
74528;SDS011;63009;52.584;5.932;2024-03-02T00:46:10;6.93;;;1.95;;
74528;SDS011;63009;52.584;5.932;2024-03-02T00:48:37;5.45;;;2.05;;
74528;SDS011;63009;52.584;5.932;2024-03-02T00:51:03;5.63;;;1.75;;
74528;SDS011;63009;52.584;5.932;2024-03-02T00:53:31;5.38;;;1.80;;
74528;SDS011;63009;52.584;5.932;2024-03-02T00:55:58;6.10;;;2.10;;
74528;SDS011;63009;52.584;5.932;2024-03-02T00:58:24;7.35;;;2.42;;
74528;SDS011;63009;52.584;5.932;2024-03-02T01:00:50;5.65;;;1.73;;
74528;SDS011;63009;52.584;5.932;2024-03-02T01:03:15;7.10;;;1.90;;
74528;SDS011;63009;52.584;5.932;2024-03-02T01:05:44;6.53;;;1.75;;
74528;SDS011;63009;52.584;5.932;2024-03-02T01:08:10;5.47;;;1.70;;
74528;SDS011;63009;52.584;5.932;2024-03-02T01:10:35;6.45;;;2.00;;
74528;SDS011;63009;52.584;5.932;2024-03-02T01:13:01;6.25;;;1.88;;
74528;SDS011;63009;52.584;5.932;2024-03-02T01:15:26;5.28;;;1.67;;
74528;SDS011;63009;52.584;5.932;2024-03-02T01:17:52;5.75;;;1.60;;
74528;SDS011;63009;52.584;5.932;2024-03-02T01:20:17;5.85;;;1.63;;
74528;SDS011;63009;52.584;5.932;2024-03-02T01:22:43;4.78;;;1.60;;
74528;SDS011;63009;52.584;5.932;2024-03-02T01:25:08;6.50;;;1.83;;
74528;SDS011;63009;52.584;5.932;2024-03-02T01:27:34;4.80;;;1.55;;
74528;SDS011;63009;52.584;5.932;2024-03-02T01:29:59;5.22;;;1.70;;
74528;SDS011;63009;52.584;5.932;2024-03-02T01:32:25;5.65;;;1.60;;
74528;SDS011;63009;52.584;5.932;2024-03-02T01:34:50;6.50;;;1.73;;
74528;SDS011;63009;52.584;5.932;2024-03-02T01:37:16;4.60;;;1.40;;
74528;SDS011;63009;52.584;5.932;2024-03-02T01:39:41;5.75;;;1.50;;
74528;SDS011;63009;52.584;5.932;2024-03-02T01:42:06;6.80;;;1.65;;
74528;SDS011;63009;52.584;5.932;2024-03-02T01:44:32;4.90;;;1.33;;
74528;SDS011;63009;52.584;5.932;2024-03-02T01:46:57;6.28;;;1.50;;
74528;SDS011;63009;52.584;5.932;2024-03-02T01:49:22;4.13;;;1.15;;
74528;SDS011;63009;52.584;5.932;2024-03-02T01:51:48;4.43;;;1.38;;
74528;SDS011;63009;52.584;5.932;2024-03-02T01:54:13;5.18;;;2.10;;
74528;SDS011;63009;52.584;5.932;2024-03-02T01:56:39;5.68;;;1.40;;
74528;SDS011;63009;52.584;5.932;2024-03-02T01:59:05;5.55;;;1.45;;
74528;SDS011;63009;52.584;5.932;2024-03-02T02:01:30;3.58;;;1.23;;
74528;SDS011;63009;52.584;5.932;2024-03-02T02:03:56;4.00;;;1.33;;
74528;SDS011;63009;52.584;5.932;2024-03-02T02:06:21;6.07;;;1.40;;
74528;SDS011;63009;52.584;5.932;2024-03-02T02:08:47;5.18;;;1.60;;
74528;SDS011;63009;52.584;5.932;2024-03-02T02:11:15;5.68;;;1.40;;
74528;SDS011;63009;52.584;5.932;2024-03-02T02:13:41;6.22;;;1.58;;
74528;SDS011;63009;52.584;5.932;2024-03-02T02:16:07;4.10;;;1.33;;
74528;SDS011;63009;52.584;5.932;2024-03-02T02:18:32;3.80;;;1.35;;
74528;SDS011;63009;52.584;5.932;2024-03-02T02:20:58;3.45;;;1.40;;
74528;SDS011;63009;52.584;5.932;2024-03-02T02:23:23;3.83;;;0.93;;
74528;SDS011;63009;52.584;5.932;2024-03-02T02:25:50;4.15;;;1.23;;
74528;SDS011;63009;52.584;5.932;2024-03-02T02:28:15;3.63;;;1.10;;
74528;SDS011;63009;52.584;5.932;2024-03-02T02:30:41;3.67;;;1.17;;
74528;SDS011;63009;52.584;5.932;2024-03-02T02:33:07;3.05;;;0.80;;
74528;SDS011;63009;52.584;5.932;2024-03-02T02:35:33;1.90;;;0.77;;
74528;SDS011;63009;52.584;5.932;2024-03-02T02:37:58;4.43;;;1.40;;
74528;SDS011;63009;52.584;5.932;2024-03-02T02:40:24;4.53;;;1.55;;
74528;SDS011;63009;52.584;5.932;2024-03-02T02:42:49;4.75;;;1.20;;
74528;SDS011;63009;52.584;5.932;2024-03-02T02:45:17;4.65;;;1.20;;
74528;SDS011;63009;52.584;5.932;2024-03-02T02:47:42;4.35;;;1.10;;
74528;SDS011;63009;52.584;5.932;2024-03-02T02:50:09;5.35;;;1.08;;
74528;SDS011;63009;52.584;5.932;2024-03-02T02:52:37;2.85;;;1.00;;
74528;SDS011;63009;52.584;5.932;2024-03-02T02:55:06;2.65;;;0.90;;
74528;SDS011;63009;52.584;5.932;2024-03-02T02:57:32;4.93;;;1.13;;
74528;SDS011;63009;52.584;5.932;2024-03-02T03:00:04;3.92;;;1.30;;
74528;SDS011;63009;52.584;5.932;2024-03-02T03:02:35;3.13;;;1.00;;
74528;SDS011;63009;52.584;5.932;2024-03-02T03:05:05;2.47;;;1.00;;
74528;SDS011;63009;52.584;5.932;2024-03-02T03:07:31;3.17;;;1.10;;
74528;SDS011;63009;52.584;5.932;2024-03-02T03:09:57;3.45;;;1.00;;
74528;SDS011;63009;52.584;5.932;2024-03-02T03:12:22;3.53;;;1.10;;
74528;SDS011;63009;52.584;5.932;2024-03-02T03:14:47;4.78;;;1.10;;
74528;SDS011;63009;52.584;5.932;2024-03-02T03:17:13;4.07;;;1.30;;
74528;SDS011;63009;52.584;5.932;2024-03-02T03:19:38;3.90;;;1.27;;
74528;SDS011;63009;52.584;5.932;2024-03-02T03:22:04;4.40;;;1.02;;
74528;SDS011;63009;52.584;5.932;2024-03-02T03:24:29;5.28;;;1.42;;
74528;SDS011;63009;52.584;5.932;2024-03-02T03:26:55;3.70;;;1.00;;
74528;SDS011;63009;52.584;5.932;2024-03-02T03:29:20;2.78;;;0.95;;
74528;SDS011;63009;52.584;5.932;2024-03-02T03:31:45;3.40;;;1.00;;
74528;SDS011;63009;52.584;5.932;2024-03-02T03:34:11;2.95;;;0.90;;
74528;SDS011;63009;52.584;5.932;2024-03-02T03:36:40;1.55;;;0.80;;
74528;SDS011;63009;52.584;5.932;2024-03-02T03:39:06;3.33;;;0.80;;
74528;SDS011;63009;52.584;5.932;2024-03-02T03:41:31;2.63;;;0.80;;
74528;SDS011;63009;52.584;5.932;2024-03-02T03:43:57;1.77;;;0.52;;
74528;SDS011;63009;52.584;5.932;2024-03-02T03:46:22;1.90;;;0.80;;
74528;SDS011;63009;52.584;5.932;2024-03-02T03:48:47;2.13;;;0.70;;
74528;SDS011;63009;52.584;5.932;2024-03-02T03:51:13;2.58;;;0.70;;
74528;SDS011;63009;52.584;5.932;2024-03-02T03:53:39;0.93;;;0.43;;
74528;SDS011;63009;52.584;5.932;2024-03-02T03:56:04;1.88;;;0.55;;
74528;SDS011;63009;52.584;5.932;2024-03-02T03:58:30;2.67;;;0.60;;
74528;SDS011;63009;52.584;5.932;2024-03-02T04:00:55;3.00;;;0.80;;
74528;SDS011;63009;52.584;5.932;2024-03-02T04:03:21;1.90;;;0.50;;
74528;SDS011;63009;52.584;5.932;2024-03-02T04:05:47;1.33;;;0.52;;
74528;SDS011;63009;52.584;5.932;2024-03-02T04:08:12;1.25;;;0.50;;
74528;SDS011;63009;52.584;5.932;2024-03-02T04:10:38;2.05;;;0.55;;
74528;SDS011;63009;52.584;5.932;2024-03-02T04:13:03;1.73;;;0.60;;
74528;SDS011;63009;52.584;5.932;2024-03-02T04:15:28;1.38;;;0.60;;
74528;SDS011;63009;52.584;5.932;2024-03-02T04:17:54;1.98;;;0.60;;
74528;SDS011;63009;52.584;5.932;2024-03-02T04:20:20;1.58;;;0.65;;
74528;SDS011;63009;52.584;5.932;2024-03-02T04:22:45;0.50;;;0.40;;
74528;SDS011;63009;52.584;5.932;2024-03-02T04:25:11;2.92;;;0.70;;
74528;SDS011;63009;52.584;5.932;2024-03-02T04:27:36;2.45;;;0.75;;
74528;SDS011;63009;52.584;5.932;2024-03-02T04:30:02;1.65;;;0.50;;
74528;SDS011;63009;52.584;5.932;2024-03-02T04:32:28;1.20;;;0.60;;
74528;SDS011;63009;52.584;5.932;2024-03-02T04:34:54;1.30;;;0.80;;
74528;SDS011;63009;52.584;5.932;2024-03-02T04:37:19;1.80;;;0.60;;
74528;SDS011;63009;52.584;5.932;2024-03-02T04:39:45;2.63;;;0.90;;
74528;SDS011;63009;52.584;5.932;2024-03-02T04:42:10;1.75;;;0.60;;
74528;SDS011;63009;52.584;5.932;2024-03-02T04:44:36;2.83;;;0.63;;
74528;SDS011;63009;52.584;5.932;2024-03-02T04:47:03;2.53;;;0.82;;
74528;SDS011;63009;52.584;5.932;2024-03-02T04:49:29;1.80;;;0.70;;
74528;SDS011;63009;52.584;5.932;2024-03-02T04:51:55;2.83;;;0.70;;
74528;SDS011;63009;52.584;5.932;2024-03-02T04:54:20;1.65;;;0.85;;
74528;SDS011;63009;52.584;5.932;2024-03-02T04:56:46;3.38;;;0.88;;
74528;SDS011;63009;52.584;5.932;2024-03-02T04:59:17;1.58;;;0.70;;
74528;SDS011;63009;52.584;5.932;2024-03-02T05:01:43;2.78;;;0.80;;
74528;SDS011;63009;52.584;5.932;2024-03-02T05:04:09;1.63;;;0.75;;
74528;SDS011;63009;52.584;5.932;2024-03-02T05:06:38;1.42;;;0.63;;
74528;SDS011;63009;52.584;5.932;2024-03-02T05:09:07;1.85;;;0.60;;
74528;SDS011;63009;52.584;5.932;2024-03-02T05:11:33;1.90;;;0.85;;
74528;SDS011;63009;52.584;5.932;2024-03-02T05:14:04;1.52;;;0.80;;
74528;SDS011;63009;52.584;5.932;2024-03-02T05:16:34;2.00;;;0.60;;
74528;SDS011;63009;52.584;5.932;2024-03-02T05:19:01;2.22;;;0.80;;
74528;SDS011;63009;52.584;5.932;2024-03-02T05:21:27;1.70;;;0.80;;
74528;SDS011;63009;52.584;5.932;2024-03-02T05:23:52;1.27;;;0.63;;
74528;SDS011;63009;52.584;5.932;2024-03-02T05:26:18;1.92;;;0.73;;
74528;SDS011;63009;52.584;5.932;2024-03-02T05:28:43;2.95;;;0.90;;
74528;SDS011;63009;52.584;5.932;2024-03-02T05:31:11;1.92;;;0.70;;
74528;SDS011;63009;52.584;5.932;2024-03-02T05:33:41;2.13;;;0.65;;
74528;SDS011;63009;52.584;5.932;2024-03-02T05:36:07;2.75;;;0.80;;
74528;SDS011;63009;52.584;5.932;2024-03-02T05:38:36;2.65;;;0.80;;
74528;SDS011;63009;52.584;5.932;2024-03-02T05:41:02;2.40;;;0.90;;
74528;SDS011;63009;52.584;5.932;2024-03-02T05:43:27;3.13;;;0.98;;
74528;SDS011;63009;52.584;5.932;2024-03-02T05:45:53;3.58;;;1.10;;
74528;SDS011;63009;52.584;5.932;2024-03-02T05:48:19;3.40;;;1.20;;
74528;SDS011;63009;52.584;5.932;2024-03-02T05:50:44;4.15;;;1.20;;
74528;SDS011;63009;52.584;5.932;2024-03-02T05:53:09;4.32;;;1.30;;
74528;SDS011;63009;52.584;5.932;2024-03-02T05:55:35;2.92;;;0.90;;
74528;SDS011;63009;52.584;5.932;2024-03-02T05:58:00;2.85;;;1.10;;
74528;SDS011;63009;52.584;5.932;2024-03-02T06:00:32;2.80;;;1.00;;
74528;SDS011;63009;52.584;5.932;2024-03-02T06:02:57;3.17;;;1.10;;
74528;SDS011;63009;52.584;5.932;2024-03-02T06:05:23;3.08;;;0.80;;
74528;SDS011;63009;52.584;5.932;2024-03-02T06:07:48;4.30;;;0.90;;
74528;SDS011;63009;52.584;5.932;2024-03-02T06:10:14;2.78;;;1.23;;
74528;SDS011;63009;52.584;5.932;2024-03-02T06:12:39;3.70;;;1.00;;
74528;SDS011;63009;52.584;5.932;2024-03-02T06:15:06;4.88;;;1.10;;
74528;SDS011;63009;52.584;5.932;2024-03-02T06:17:32;2.28;;;0.93;;
74528;SDS011;63009;52.584;5.932;2024-03-02T06:19:57;1.83;;;0.80;;
74528;SDS011;63009;52.584;5.932;2024-03-02T06:22:23;4.13;;;0.70;;
74528;SDS011;63009;52.584;5.932;2024-03-02T06:24:50;4.28;;;1.20;;
74528;SDS011;63009;52.584;5.932;2024-03-02T06:27:15;1.70;;;0.80;;
74528;SDS011;63009;52.584;5.932;2024-03-02T06:29:41;3.10;;;0.80;;
74528;SDS011;63009;52.584;5.932;2024-03-02T06:32:07;2.47;;;0.90;;
74528;SDS011;63009;52.584;5.932;2024-03-02T06:34:32;2.42;;;0.80;;
74528;SDS011;63009;52.584;5.932;2024-03-02T06:37:00;1.42;;;0.60;;
74528;SDS011;63009;52.584;5.932;2024-03-02T06:39:25;2.35;;;0.77;;
74528;SDS011;63009;52.584;5.932;2024-03-02T06:41:51;1.65;;;0.77;;
74528;SDS011;63009;52.584;5.932;2024-03-02T06:44:17;2.00;;;0.80;;
74528;SDS011;63009;52.584;5.932;2024-03-02T06:46:42;1.85;;;0.75;;
74528;SDS011;63009;52.584;5.932;2024-03-02T06:49:07;2.70;;;0.85;;
74528;SDS011;63009;52.584;5.932;2024-03-02T06:51:35;2.38;;;0.80;;
74528;SDS011;63009;52.584;5.932;2024-03-02T06:54:00;3.08;;;0.90;;
74528;SDS011;63009;52.584;5.932;2024-03-02T06:56:26;3.08;;;1.10;;
74528;SDS011;63009;52.584;5.932;2024-03-02T06:58:53;2.65;;;0.93;;
74528;SDS011;63009;52.584;5.932;2024-03-02T07:01:19;4.82;;;1.40;;
74528;SDS011;63009;52.584;5.932;2024-03-02T07:03:47;8.48;;;1.40;;
74528;SDS011;63009;52.584;5.932;2024-03-02T07:06:16;4.57;;;1.10;;
74528;SDS011;63009;52.584;5.932;2024-03-02T07:08:45;5.63;;;1.20;;
74528;SDS011;63009;52.584;5.932;2024-03-02T07:11:10;3.65;;;1.20;;
74528;SDS011;63009;52.584;5.932;2024-03-02T07:13:36;3.28;;;1.00;;
74528;SDS011;63009;52.584;5.932;2024-03-02T07:16:01;4.20;;;1.55;;
74528;SDS011;63009;52.584;5.932;2024-03-02T07:18:29;4.20;;;1.05;;
74528;SDS011;63009;52.584;5.932;2024-03-02T07:20:56;3.28;;;1.02;;
74528;SDS011;63009;52.584;5.932;2024-03-02T07:23:24;3.38;;;1.17;;
74528;SDS011;63009;52.584;5.932;2024-03-02T07:25:53;5.90;;;1.15;;
74528;SDS011;63009;52.584;5.932;2024-03-02T07:28:22;3.25;;;1.27;;
74528;SDS011;63009;52.584;5.932;2024-03-02T07:30:57;2.75;;;1.00;;
74528;SDS011;63009;52.584;5.932;2024-03-02T07:33:29;4.35;;;0.90;;
74528;SDS011;63009;52.584;5.932;2024-03-02T07:35:56;3.10;;;1.13;;
74528;SDS011;63009;52.584;5.932;2024-03-02T07:38:22;4.95;;;0.98;;
74528;SDS011;63009;52.584;5.932;2024-03-02T07:40:49;2.45;;;0.80;;
74528;SDS011;63009;52.584;5.932;2024-03-02T07:43:21;3.38;;;1.00;;
74528;SDS011;63009;52.584;5.932;2024-03-02T07:45:47;4.43;;;1.00;;
74528;SDS011;63009;52.584;5.932;2024-03-02T07:48:13;3.15;;;0.90;;
74528;SDS011;63009;52.584;5.932;2024-03-02T07:50:40;4.32;;;1.10;;
74528;SDS011;63009;52.584;5.932;2024-03-02T07:53:06;3.38;;;0.90;;
74528;SDS011;63009;52.584;5.932;2024-03-02T07:55:33;3.53;;;0.90;;
74528;SDS011;63009;52.584;5.932;2024-03-02T07:57:59;2.85;;;0.70;;
74528;SDS011;63009;52.584;5.932;2024-03-02T08:00:26;3.60;;;0.90;;
74528;SDS011;63009;52.584;5.932;2024-03-02T08:02:52;2.42;;;0.90;;
74528;SDS011;63009;52.584;5.932;2024-03-02T08:05:18;4.22;;;0.95;;
74528;SDS011;63009;52.584;5.932;2024-03-02T08:07:46;2.80;;;0.80;;
74528;SDS011;63009;52.584;5.932;2024-03-02T08:10:14;0.63;;;0.32;;
74528;SDS011;63009;52.584;5.932;2024-03-02T08:12:39;2.28;;;0.60;;
74528;SDS011;63009;52.584;5.932;2024-03-02T08:15:05;2.65;;;0.57;;
74528;SDS011;63009;52.584;5.932;2024-03-02T08:17:30;1.95;;;0.70;;
74528;SDS011;63009;52.584;5.932;2024-03-02T08:19:56;3.38;;;1.02;;
74528;SDS011;63009;52.584;5.932;2024-03-02T08:22:22;2.78;;;0.68;;
74528;SDS011;63009;52.584;5.932;2024-03-02T08:24:50;2.28;;;0.73;;
74528;SDS011;63009;52.584;5.932;2024-03-02T08:27:16;5.18;;;1.13;;
74528;SDS011;63009;52.584;5.932;2024-03-02T08:29:41;2.65;;;0.60;;
74528;SDS011;63009;52.584;5.932;2024-03-02T08:32:07;3.05;;;0.80;;
74528;SDS011;63009;52.584;5.932;2024-03-02T08:34:32;3.13;;;0.75;;
74528;SDS011;63009;52.584;5.932;2024-03-02T08:37:00;4.25;;;1.05;;
74528;SDS011;63009;52.584;5.932;2024-03-02T08:39:25;4.20;;;1.00;;
74528;SDS011;63009;52.584;5.932;2024-03-02T08:41:51;2.88;;;1.00;;
74528;SDS011;63009;52.584;5.932;2024-03-02T08:44:16;3.58;;;1.00;;
74528;SDS011;63009;52.584;5.932;2024-03-02T08:46:42;4.90;;;1.23;;
74528;SDS011;63009;52.584;5.932;2024-03-02T08:49:08;2.70;;;0.70;;
74528;SDS011;63009;52.584;5.932;2024-03-02T08:51:34;3.85;;;0.90;;
74528;SDS011;63009;52.584;5.932;2024-03-02T08:53:59;2.88;;;0.80;;
74528;SDS011;63009;52.584;5.932;2024-03-02T08:56:25;2.15;;;0.77;;
74528;SDS011;63009;52.584;5.932;2024-03-02T08:58:53;3.47;;;1.00;;
74528;SDS011;63009;52.584;5.932;2024-03-02T09:01:18;4.28;;;1.50;;
74528;SDS011;63009;52.584;5.932;2024-03-02T09:03:47;4.43;;;1.17;;
74528;SDS011;63009;52.584;5.932;2024-03-02T09:06:15;3.03;;;1.00;;
74528;SDS011;63009;52.584;5.932;2024-03-02T09:08:45;2.95;;;0.80;;
74528;SDS011;63009;52.584;5.932;2024-03-02T09:11:10;2.15;;;0.60;;
74528;SDS011;63009;52.584;5.932;2024-03-02T09:13:37;6.63;;;0.88;;
74528;SDS011;63009;52.584;5.932;2024-03-02T09:16:03;3.05;;;0.90;;
74528;SDS011;63009;52.584;5.932;2024-03-02T09:18:29;5.35;;;1.02;;
74528;SDS011;63009;52.584;5.932;2024-03-02T09:20:54;4.22;;;1.48;;
74528;SDS011;63009;52.584;5.932;2024-03-02T09:23:23;2.43;;;0.73;;
74528;SDS011;63009;52.584;5.932;2024-03-02T09:25:51;3.10;;;0.70;;
74528;SDS011;63009;52.584;5.932;2024-03-02T09:28:17;4.65;;;1.45;;
74528;SDS011;63009;52.584;5.932;2024-03-02T09:30:43;2.47;;;0.73;;
74528;SDS011;63009;52.584;5.932;2024-03-02T09:33:08;2.15;;;0.47;;
74528;SDS011;63009;52.584;5.932;2024-03-02T09:35:34;7.28;;;1.05;;
74528;SDS011;63009;52.584;5.932;2024-03-02T09:37:59;4.15;;;0.77;;
74528;SDS011;63009;52.584;5.932;2024-03-02T09:40:24;1.73;;;0.57;;
74528;SDS011;63009;52.584;5.932;2024-03-02T09:42:50;1.92;;;0.65;;
74528;SDS011;63009;52.584;5.932;2024-03-02T09:45:18;2.40;;;0.70;;
74528;SDS011;63009;52.584;5.932;2024-03-02T09:47:48;3.15;;;0.75;;
74528;SDS011;63009;52.584;5.932;2024-03-02T09:50:13;2.22;;;0.60;;
74528;SDS011;63009;52.584;5.932;2024-03-02T09:52:39;3.70;;;0.90;;
74528;SDS011;63009;52.584;5.932;2024-03-02T09:55:07;3.88;;;0.70;;
74528;SDS011;63009;52.584;5.932;2024-03-02T09:57:33;2.42;;;0.65;;
74528;SDS011;63009;52.584;5.932;2024-03-02T09:59:58;3.10;;;0.80;;
74528;SDS011;63009;52.584;5.932;2024-03-02T10:02:24;1.55;;;0.63;;
74528;SDS011;63009;52.584;5.932;2024-03-02T10:04:49;3.85;;;0.90;;
74528;SDS011;63009;52.584;5.932;2024-03-02T10:07:16;2.92;;;0.70;;
74528;SDS011;63009;52.584;5.932;2024-03-02T10:09:43;3.45;;;1.00;;
74528;SDS011;63009;52.584;5.932;2024-03-02T10:12:11;3.47;;;1.08;;
74528;SDS011;63009;52.584;5.932;2024-03-02T10:14:37;3.95;;;1.05;;
74528;SDS011;63009;52.584;5.932;2024-03-02T10:17:08;3.03;;;0.50;;
74528;SDS011;63009;52.584;5.932;2024-03-02T10:19:37;3.00;;;0.70;;
74528;SDS011;63009;52.584;5.932;2024-03-02T10:22:04;2.72;;;0.75;;
74528;SDS011;63009;52.584;5.932;2024-03-02T10:24:38;3.17;;;0.80;;
74528;SDS011;63009;52.584;5.932;2024-03-02T10:27:08;3.58;;;0.60;;
74528;SDS011;63009;52.584;5.932;2024-03-02T10:29:36;5.53;;;1.42;;
74528;SDS011;63009;52.584;5.932;2024-03-02T10:32:02;3.25;;;0.63;;
74528;SDS011;63009;52.584;5.932;2024-03-02T10:34:28;3.75;;;0.80;;
74528;SDS011;63009;52.584;5.932;2024-03-02T10:36:53;3.30;;;0.73;;
74528;SDS011;63009;52.584;5.932;2024-03-02T10:39:23;3.55;;;0.88;;
74528;SDS011;63009;52.584;5.932;2024-03-02T10:41:49;3.20;;;0.80;;
74528;SDS011;63009;52.584;5.932;2024-03-02T10:44:17;4.60;;;1.08;;
74528;SDS011;63009;52.584;5.932;2024-03-02T10:46:43;3.35;;;0.98;;
74528;SDS011;63009;52.584;5.932;2024-03-02T10:49:11;4.80;;;0.98;;
74528;SDS011;63009;52.584;5.932;2024-03-02T10:51:37;2.55;;;0.80;;
74528;SDS011;63009;52.584;5.932;2024-03-02T10:54:03;3.00;;;0.70;;
74528;SDS011;63009;52.584;5.932;2024-03-02T10:56:33;3.40;;;0.70;;
74528;SDS011;63009;52.584;5.932;2024-03-02T10:59:12;2.80;;;1.20;;
74528;SDS011;63009;52.584;5.932;2024-03-02T11:01:50;4.65;;;1.10;;
74528;SDS011;63009;52.584;5.932;2024-03-02T11:04:18;3.67;;;0.88;;
74528;SDS011;63009;52.584;5.932;2024-03-02T11:06:50;6.18;;;0.90;;
74528;SDS011;63009;52.584;5.932;2024-03-02T11:09:20;3.17;;;0.85;;
74528;SDS011;63009;52.584;5.932;2024-03-02T11:11:49;4.95;;;0.90;;
74528;SDS011;63009;52.584;5.932;2024-03-02T11:14:41;3.63;;;0.65;;
74528;SDS011;63009;52.584;5.932;2024-03-02T11:17:08;4.38;;;0.98;;
74528;SDS011;63009;52.584;5.932;2024-03-02T11:19:36;5.38;;;0.90;;
74528;SDS011;63009;52.584;5.932;2024-03-02T11:22:06;14.00;;;2.08;;
74528;SDS011;63009;52.584;5.932;2024-03-02T11:24:33;4.35;;;1.00;;
74528;SDS011;63009;52.584;5.932;2024-03-02T11:26:59;3.42;;;0.68;;
74528;SDS011;63009;52.584;5.932;2024-03-02T11:32:06;4.63;;;0.77;;
74528;SDS011;63009;52.584;5.932;2024-03-02T11:34:43;5.82;;;0.80;;
74528;SDS011;63009;52.584;5.932;2024-03-02T11:37:11;3.20;;;0.70;;
74528;SDS011;63009;52.584;5.932;2024-03-02T11:39:38;5.20;;;1.30;;
74528;SDS011;63009;52.584;5.932;2024-03-02T11:42:07;4.63;;;0.95;;
74528;SDS011;63009;52.584;5.932;2024-03-02T11:44:34;2.03;;;0.68;;
74528;SDS011;63009;52.584;5.932;2024-03-02T11:47:10;4.00;;;1.00;;
74528;SDS011;63009;52.584;5.932;2024-03-02T11:49:46;2.92;;;0.90;;
74528;SDS011;63009;52.584;5.932;2024-03-02T11:52:15;3.50;;;0.90;;
74528;SDS011;63009;52.584;5.932;2024-03-02T11:54:43;5.50;;;1.52;;
74528;SDS011;63009;52.584;5.932;2024-03-02T11:57:15;4.28;;;1.30;;
74528;SDS011;63009;52.584;5.932;2024-03-02T11:59:44;2.85;;;0.70;;
74528;SDS011;63009;52.584;5.932;2024-03-02T12:02:18;4.03;;;1.20;;
74528;SDS011;63009;52.584;5.932;2024-03-02T12:04:45;4.00;;;0.93;;
74528;SDS011;63009;52.584;5.932;2024-03-02T12:07:13;7.20;;;1.00;;
74528;SDS011;63009;52.584;5.932;2024-03-02T12:09:44;6.70;;;1.40;;
74528;SDS011;63009;52.584;5.932;2024-03-02T12:12:09;7.90;;;1.92;;
74528;SDS011;63009;52.584;5.932;2024-03-02T12:14:36;3.95;;;0.90;;
74528;SDS011;63009;52.584;5.932;2024-03-02T12:17:03;4.75;;;1.10;;
74528;SDS011;63009;52.584;5.932;2024-03-02T12:19:34;5.15;;;1.20;;
74528;SDS011;63009;52.584;5.932;2024-03-02T12:22:00;4.65;;;0.90;;
74528;SDS011;63009;52.584;5.932;2024-03-02T12:24:26;6.78;;;1.00;;
74528;SDS011;63009;52.584;5.932;2024-03-02T12:26:53;3.28;;;1.05;;
74528;SDS011;63009;52.584;5.932;2024-03-02T12:29:19;4.53;;;1.00;;
74528;SDS011;63009;52.584;5.932;2024-03-02T12:31:49;7.25;;;1.08;;
74528;SDS011;63009;52.584;5.932;2024-03-02T12:34:16;4.00;;;0.82;;
74528;SDS011;63009;52.584;5.932;2024-03-02T12:36:43;5.00;;;1.10;;
74528;SDS011;63009;52.584;5.932;2024-03-02T12:39:12;3.00;;;0.80;;
74528;SDS011;63009;52.584;5.932;2024-03-02T12:41:38;3.63;;;0.98;;
74528;SDS011;63009;52.584;5.932;2024-03-02T12:44:04;5.85;;;1.48;;
74528;SDS011;63009;52.584;5.932;2024-03-02T12:46:31;3.00;;;0.90;;
74528;SDS011;63009;52.584;5.932;2024-03-02T12:48:57;2.58;;;0.77;;
74528;SDS011;63009;52.584;5.932;2024-03-02T12:51:23;3.47;;;1.00;;
74528;SDS011;63009;52.584;5.932;2024-03-02T12:53:55;4.60;;;0.90;;
74528;SDS011;63009;52.584;5.932;2024-03-02T12:56:21;3.63;;;0.85;;
74528;SDS011;63009;52.584;5.932;2024-03-02T12:58:47;6.32;;;1.30;;
74528;SDS011;63009;52.584;5.932;2024-03-02T13:01:14;3.30;;;0.73;;
74528;SDS011;63009;52.584;5.932;2024-03-02T13:03:40;4.82;;;1.02;;
74528;SDS011;63009;52.584;5.932;2024-03-02T13:06:06;5.40;;;1.08;;
74528;SDS011;63009;52.584;5.932;2024-03-02T13:08:33;6.35;;;1.42;;
74528;SDS011;63009;52.584;5.932;2024-03-02T13:10:58;3.88;;;1.05;;
74528;SDS011;63009;52.584;5.932;2024-03-02T13:13:24;5.72;;;1.30;;
74528;SDS011;63009;52.584;5.932;2024-03-02T13:15:49;5.63;;;1.15;;
74528;SDS011;63009;52.584;5.932;2024-03-02T13:18:17;5.80;;;1.13;;
74528;SDS011;63009;52.584;5.932;2024-03-02T13:20:46;8.98;;;2.53;;
74528;SDS011;63009;52.584;5.932;2024-03-02T13:23:12;6.22;;;1.80;;
74528;SDS011;63009;52.584;5.932;2024-03-02T13:25:37;7.38;;;1.75;;
74528;SDS011;63009;52.584;5.932;2024-03-02T13:28:03;7.25;;;1.73;;
74528;SDS011;63009;52.584;5.932;2024-03-02T13:30:29;5.65;;;1.50;;
74528;SDS011;63009;52.584;5.932;2024-03-02T13:32:54;7.03;;;1.33;;
74528;SDS011;63009;52.584;5.932;2024-03-02T13:35:20;4.40;;;1.20;;
74528;SDS011;63009;52.584;5.932;2024-03-02T13:37:45;7.22;;;1.40;;
74528;SDS011;63009;52.584;5.932;2024-03-02T13:40:10;4.05;;;0.90;;
74528;SDS011;63009;52.584;5.932;2024-03-02T13:42:39;3.40;;;1.10;;
74528;SDS011;63009;52.584;5.932;2024-03-02T13:45:05;5.60;;;1.00;;
74528;SDS011;63009;52.584;5.932;2024-03-02T13:47:31;4.15;;;1.13;;
74528;SDS011;63009;52.584;5.932;2024-03-02T13:49:57;4.68;;;1.25;;
74528;SDS011;63009;52.584;5.932;2024-03-02T13:52:23;4.45;;;1.00;;
74528;SDS011;63009;52.584;5.932;2024-03-02T13:54:50;4.50;;;1.10;;
74528;SDS011;63009;52.584;5.932;2024-03-02T13:57:17;5.75;;;1.63;;
74528;SDS011;63009;52.584;5.932;2024-03-02T13:59:47;6.22;;;1.33;;
74528;SDS011;63009;52.584;5.932;2024-03-02T14:02:13;5.72;;;1.40;;
74528;SDS011;63009;52.584;5.932;2024-03-02T14:04:39;3.85;;;1.30;;
74528;SDS011;63009;52.584;5.932;2024-03-02T14:07:04;5.55;;;1.50;;
74528;SDS011;63009;52.584;5.932;2024-03-02T14:09:33;5.10;;;1.63;;
74528;SDS011;63009;52.584;5.932;2024-03-02T14:11:59;5.18;;;1.27;;
74528;SDS011;63009;52.584;5.932;2024-03-02T14:16:53;5.13;;;1.42;;
74528;SDS011;63009;52.584;5.932;2024-03-02T14:19:21;3.83;;;1.17;;
74528;SDS011;63009;52.584;5.932;2024-03-02T14:21:47;3.65;;;1.20;;
74528;SDS011;63009;52.584;5.932;2024-03-02T14:24:13;4.28;;;1.10;;
74528;SDS011;63009;52.584;5.932;2024-03-02T14:26:38;5.03;;;1.52;;
74528;SDS011;63009;52.584;5.932;2024-03-02T14:29:04;4.03;;;1.33;;
74528;SDS011;63009;52.584;5.932;2024-03-02T14:31:30;4.95;;;1.73;;
74528;SDS011;63009;52.584;5.932;2024-03-02T14:33:56;4.30;;;1.33;;
74528;SDS011;63009;52.584;5.932;2024-03-02T14:36:22;5.40;;;1.33;;
74528;SDS011;63009;52.584;5.932;2024-03-02T14:38:47;5.78;;;1.67;;
74528;SDS011;63009;52.584;5.932;2024-03-02T14:41:13;4.65;;;1.40;;
74528;SDS011;63009;52.584;5.932;2024-03-02T14:43:39;4.55;;;1.20;;
74528;SDS011;63009;52.584;5.932;2024-03-02T14:46:04;3.72;;;1.13;;
74528;SDS011;63009;52.584;5.932;2024-03-02T14:48:33;5.35;;;1.20;;
74528;SDS011;63009;52.584;5.932;2024-03-02T14:50:59;5.40;;;1.30;;
74528;SDS011;63009;52.584;5.932;2024-03-02T14:53:24;5.45;;;1.17;;
74528;SDS011;63009;52.584;5.932;2024-03-02T14:55:50;5.07;;;1.30;;
74528;SDS011;63009;52.584;5.932;2024-03-02T14:58:15;5.63;;;1.10;;
74528;SDS011;63009;52.584;5.932;2024-03-02T15:00:41;5.22;;;1.10;;